createdAt,value
2022-12-12T00:02:08.793Z,2.72
2022-12-12T00:04:41.219Z,3.00
2022-12-12T00:07:13.571Z,3.80
2022-12-12T00:09:45.894Z,6.85
2022-12-12T00:12:18.525Z,5.53
2022-12-12T00:14:51.500Z,5.95
2022-12-12T00:17:23.851Z,4.88
2022-12-12T00:19:56.183Z,4.63
2022-12-12T00:22:28.534Z,4.28
2022-12-12T00:25:00.870Z,3.72
2022-12-12T00:27:33.794Z,3.83
2022-12-12T00:30:08.270Z,3.97
2022-12-12T00:32:40.597Z,3.88
2022-12-12T00:35:13.370Z,4.20
2022-12-12T00:37:45.852Z,4.57
2022-12-12T00:40:18.245Z,3.63
2022-12-12T00:42:50.525Z,4.50
2022-12-12T00:45:23.581Z,4.05
2022-12-12T00:47:55.914Z,3.35
2022-12-12T00:50:28.242Z,4.55
2022-12-12T00:53:00.935Z,4.22
2022-12-12T00:55:33.312Z,5.07
2022-12-12T00:58:05.822Z,4.88
2022-12-12T01:00:40.628Z,5.22
2022-12-12T01:03:13.040Z,5.38
2022-12-12T01:05:45.650Z,6.22
2022-12-12T01:08:18.112Z,7.05
2022-12-12T01:10:50.551Z,8.32
2022-12-12T01:13:23.101Z,5.68
2022-12-12T01:15:56.202Z,5.43
2022-12-12T01:18:28.607Z,5.43
2022-12-12T01:21:01.021Z,6.07
2022-12-12T01:23:33.461Z,6.45
2022-12-12T01:26:09.109Z,5.75
2022-12-12T01:28:42.300Z,5.22
2022-12-12T01:31:15.941Z,5.65
2022-12-12T01:33:48.353Z,7.70
2022-12-12T01:36:23.114Z,8.10
2022-12-12T01:38:56.745Z,6.40
2022-12-12T01:41:29.093Z,4.43
2022-12-12T01:44:02.624Z,6.38
2022-12-12T01:46:42.314Z,6.50
2022-12-12T01:49:18.849Z,7.43
2022-12-12T01:51:55.370Z,3.72
2022-12-12T01:54:31.101Z,4.55
2022-12-12T01:57:07.938Z,3.22
2022-12-12T01:59:41.005Z,1.70
2022-12-12T02:02:14.232Z,4.90
2022-12-12T02:04:46.652Z,2.03
2022-12-12T02:07:19.041Z,2.97
2022-12-12T02:09:51.511Z,2.17
2022-12-12T02:12:23.872Z,1.98
2022-12-12T02:14:56.428Z,2.80
2022-12-12T02:17:46.764Z,2.13
2022-12-12T02:20:42.147Z,1.85
2022-12-12T02:23:55.756Z,2.25
2022-12-12T02:27:04.098Z,3.65
2022-12-12T02:30:01.945Z,2.67
2022-12-12T02:32:50.296Z,3.15
2022-12-12T02:35:33.630Z,4.30
2022-12-12T02:38:14.251Z,5.28
2022-12-12T02:40:56.169Z,4.78
2022-12-12T02:43:36.136Z,5.20
2022-12-12T02:46:15.535Z,4.95
2022-12-12T02:48:53.586Z,4.35
2022-12-12T02:51:27.464Z,3.50
2022-12-12T02:54:00.461Z,4.80
2022-12-12T02:56:51.471Z,3.88
2022-12-12T02:59:27.636Z,4.40
2022-12-12T03:02:31.724Z,3.88
2022-12-12T03:05:37.824Z,4.40
2022-12-12T03:08:24.231Z,6.57
2022-12-12T03:11:01.383Z,8.38
2022-12-12T03:13:43.277Z,7.63
2022-12-12T03:16:27.358Z,6.35
2022-12-12T03:19:08.397Z,5.68
2022-12-12T03:22:07.179Z,4.88
2022-12-12T03:24:48.758Z,3.37
2022-12-12T03:27:26.834Z,5.60
2022-12-12T03:30:03.322Z,5.00
2022-12-12T03:32:41.033Z,5.05
2022-12-12T03:35:18.235Z,4.82
2022-12-12T03:37:56.552Z,4.57
2022-12-12T03:40:33.253Z,3.90
2022-12-12T03:43:09.959Z,5.25
2022-12-12T03:45:48.083Z,4.50
2022-12-12T03:48:27.169Z,4.13
2022-12-12T03:51:04.501Z,4.03
2022-12-12T03:53:44.509Z,3.78
2022-12-12T03:56:20.964Z,4.80
2022-12-12T03:58:57.296Z,4.32
2022-12-12T04:01:36.254Z,5.13
2022-12-12T04:04:13.988Z,4.97
2022-12-12T04:06:51.231Z,4.38
2022-12-12T04:09:42.435Z,3.80
2022-12-12T04:12:37.362Z,4.35
2022-12-12T04:15:46.140Z,3.78
2022-12-12T04:18:30.567Z,4.07
2022-12-12T04:21:33.408Z,3.92
2022-12-12T04:24:17.180Z,2.97
2022-12-12T04:26:56.464Z,5.43
2022-12-12T04:29:37.305Z,4.20
2022-12-12T04:32:18.227Z,3.15
2022-12-12T04:34:57.641Z,3.10
2022-12-12T04:37:35.852Z,2.35
2022-12-12T04:40:12.720Z,3.58
2022-12-12T04:42:52.642Z,2.85
2022-12-12T04:45:30.827Z,3.60
2022-12-12T04:48:07.983Z,3.60
2022-12-12T04:51:30.044Z,5.15
2022-12-12T04:54:09.648Z,4.13
2022-12-12T04:56:45.071Z,4.18
2022-12-12T04:59:18.664Z,4.38
2022-12-12T05:01:55.264Z,2.53
2022-12-12T05:04:33.189Z,4.45
2022-12-12T05:07:12.031Z,4.28
2022-12-12T05:09:44.765Z,5.90
2022-12-12T05:12:17.302Z,3.35
2022-12-12T05:14:50.426Z,4.78
2022-12-12T05:17:30.789Z,4.88
2022-12-12T05:20:05.219Z,5.60
2022-12-12T05:22:37.737Z,5.20
2022-12-12T05:25:10.937Z,5.65
2022-12-12T05:27:43.470Z,4.88
2022-12-12T05:30:16.909Z,7.65
2022-12-12T05:32:49.282Z,5.85
2022-12-12T05:35:22.125Z,8.02
2022-12-12T05:37:54.543Z,6.88
2022-12-12T05:40:26.884Z,8.55
2022-12-12T05:42:59.239Z,7.22
2022-12-12T05:45:32.281Z,6.57
2022-12-12T05:48:05.009Z,7.03
2022-12-12T05:50:37.403Z,6.70
2022-12-12T05:53:09.822Z,5.65
2022-12-12T05:55:42.182Z,4.57
2022-12-12T05:58:14.509Z,5.75
2022-12-12T06:00:48.412Z,6.63
2022-12-12T06:03:20.897Z,5.05
2022-12-12T06:05:53.220Z,5.00
2022-12-12T06:08:26.020Z,4.05
2022-12-12T06:10:58.494Z,5.57
2022-12-12T06:13:30.859Z,4.68
2022-12-12T06:16:07.058Z,3.03
2022-12-12T06:18:39.390Z,5.18
2022-12-12T06:21:12.994Z,4.40
2022-12-12T06:23:45.375Z,4.40
2022-12-12T06:26:19.994Z,4.60
2022-12-12T06:28:52.395Z,5.40
2022-12-12T06:31:25.792Z,3.90
2022-12-12T06:33:58.197Z,3.60
2022-12-12T06:36:30.548Z,3.75
2022-12-12T06:39:03.649Z,4.78
2022-12-12T06:41:36.181Z,3.83
2022-12-12T06:44:08.646Z,6.20
2022-12-12T06:46:42.040Z,5.57
2022-12-12T06:49:14.469Z,5.50
2022-12-12T06:51:48.077Z,8.48
2022-12-12T06:54:20.457Z,6.20
2022-12-12T06:56:52.815Z,5.20
2022-12-12T06:59:25.215Z,4.72
2022-12-12T07:01:58.413Z,4.15
2022-12-12T07:04:30.827Z,3.78
2022-12-12T07:07:03.215Z,3.55
2022-12-12T07:09:36.003Z,3.35
2022-12-12T07:12:08.376Z,4.00
2022-12-12T07:14:40.725Z,3.75
2022-12-12T07:17:13.785Z,2.85
2022-12-12T07:19:46.123Z,2.92
2022-12-12T07:22:18.640Z,5.25
2022-12-12T07:24:51.891Z,7.03
2022-12-12T07:27:24.275Z,6.03
2022-12-12T07:29:56.618Z,4.28
2022-12-12T07:32:29.670Z,4.35
2022-12-12T07:35:02.048Z,4.35
2022-12-12T07:37:34.428Z,3.97
2022-12-12T07:40:07.807Z,4.10
2022-12-12T07:42:40.235Z,7.72
2022-12-12T07:45:31.931Z,4.78
2022-12-12T07:48:07.621Z,6.60
2022-12-12T07:50:40.194Z,4.97
2022-12-12T07:53:12.580Z,4.85
2022-12-12T07:55:44.959Z,5.75
2022-12-12T07:58:17.349Z,6.30
2022-12-12T08:00:49.776Z,4.63
2022-12-12T08:03:22.768Z,5.28
2022-12-12T08:05:55.068Z,5.43
2022-12-12T08:08:27.486Z,5.88
2022-12-12T08:10:59.929Z,8.98
2022-12-12T08:13:33.957Z,9.23
2022-12-12T08:16:12.015Z,10.20
2022-12-12T08:18:45.644Z,8.18
2022-12-12T08:21:24.788Z,7.13
2022-12-12T08:23:59.123Z,7.40
2022-12-12T08:26:31.783Z,8.57
2022-12-12T08:29:04.723Z,11.40
2022-12-12T08:31:37.943Z,8.85
2022-12-12T08:34:11.308Z,10.60
2022-12-12T08:36:44.922Z,12.10
2022-12-12T08:39:17.347Z,7.95
2022-12-12T08:41:49.937Z,8.18
2022-12-12T08:44:22.321Z,7.35
2022-12-12T08:46:55.036Z,9.88
2022-12-12T08:49:28.148Z,6.47
2022-12-12T08:52:00.493Z,7.05
2022-12-12T08:54:32.834Z,6.68
2022-12-12T08:57:05.248Z,4.85
2022-12-12T08:59:37.605Z,5.85
2022-12-12T09:02:11.869Z,4.82
2022-12-12T09:04:45.032Z,4.85
2022-12-12T09:07:17.499Z,5.72
2022-12-12T09:09:49.869Z,6.25
2022-12-12T09:12:22.260Z,6.88
2022-12-12T09:14:54.585Z,14.48
2022-12-12T09:17:26.957Z,11.82
2022-12-12T09:19:59.957Z,6.28
2022-12-12T09:22:32.534Z,4.45
2022-12-12T09:25:05.675Z,4.55
2022-12-12T09:27:38.018Z,5.47
2022-12-12T09:30:11.242Z,5.32
2022-12-12T09:32:44.444Z,7.43
2022-12-12T09:35:17.814Z,14.50
2022-12-12T09:37:50.201Z,8.95
2022-12-12T09:40:29.536Z,6.85
2022-12-12T09:43:02.531Z,9.35
2022-12-12T09:45:38.358Z,9.70
2022-12-12T09:48:17.193Z,7.85
2022-12-12T09:50:50.386Z,9.50
2022-12-12T09:53:25.478Z,8.32
2022-12-12T09:56:03.176Z,8.70
2022-12-12T09:58:46.820Z,8.32
2022-12-12T10:01:26.910Z,11.57
2022-12-12T10:04:10.367Z,8.98
2022-12-12T10:06:47.042Z,6.97
2022-12-12T10:09:35.846Z,7.10
2022-12-12T10:12:13.709Z,7.67
2022-12-12T10:14:50.634Z,8.90
2022-12-12T10:17:27.960Z,9.18
2022-12-12T10:20:04.753Z,9.57
2022-12-12T10:22:42.768Z,10.18
2022-12-12T10:25:21.059Z,9.40
2022-12-12T10:27:55.141Z,10.75
2022-12-12T10:30:31.990Z,9.93
2022-12-12T10:33:15.896Z,9.40
2022-12-12T10:35:54.155Z,5.82
2022-12-12T10:38:47.505Z,6.20
2022-12-12T10:41:30.793Z,5.80
2022-12-12T10:44:09.479Z,6.20
2022-12-12T10:46:45.527Z,4.70
2022-12-12T10:49:20.858Z,4.70
2022-12-12T10:51:55.354Z,3.30
2022-12-12T10:54:32.024Z,7.72
2022-12-12T10:57:08.506Z,6.10
2022-12-12T10:59:43.164Z,6.65
2022-12-12T11:02:27.325Z,6.05
2022-12-12T11:05:09.782Z,8.45
2022-12-12T11:07:44.974Z,6.47
2022-12-12T11:10:31.985Z,7.50
2022-12-12T11:13:15.620Z,8.20
2022-12-12T11:15:51.710Z,8.43
2022-12-12T11:18:24.791Z,7.65
2022-12-12T11:21:06.442Z,8.20
2022-12-12T11:23:41.311Z,7.50
2022-12-12T11:26:18.628Z,7.32
2022-12-12T11:28:57.831Z,7.32
2022-12-12T11:31:33.973Z,8.27
2022-12-12T11:34:06.869Z,6.03
2022-12-12T11:36:41.410Z,7.57
2022-12-12T11:39:16.451Z,7.68
2022-12-12T11:42:01.023Z,7.65
2022-12-12T11:44:35.778Z,6.30
2022-12-12T11:47:29.577Z,7.90
2022-12-12T11:50:04.966Z,7.78
2022-12-12T11:52:41.149Z,8.68
2022-12-12T11:55:16.592Z,8.57
2022-12-12T11:58:14.357Z,9.20
2022-12-12T12:00:59.529Z,8.23
2022-12-12T12:03:54.816Z,7.72
2022-12-12T12:06:38.169Z,8.70
2022-12-12T12:09:25.036Z,8.73
2022-12-12T12:12:06.472Z,9.25
2022-12-12T12:15:01.974Z,9.32
2022-12-12T12:17:57.817Z,10.10
2022-12-12T12:20:43.428Z,11.43
2022-12-12T12:23:23.640Z,10.65
2022-12-12T12:26:03.525Z,10.80
2022-12-12T12:29:01.466Z,10.45
2022-12-12T12:31:43.600Z,12.60
2022-12-12T12:34:23.702Z,11.88
2022-12-12T12:37:09.262Z,13.23
2022-12-12T12:39:59.618Z,13.00
2022-12-12T12:42:50.004Z,11.85
2022-12-12T12:45:29.463Z,11.68
2022-12-12T12:48:10.871Z,12.90
2022-12-12T12:50:47.265Z,11.88
2022-12-12T12:53:28.884Z,14.48
2022-12-12T12:56:08.653Z,13.80
2022-12-12T12:58:46.787Z,15.70
2022-12-12T13:01:24.588Z,14.77
2022-12-12T13:04:02.488Z,15.32
2022-12-12T13:06:43.533Z,14.85
2022-12-12T13:09:25.125Z,16.48
2022-12-12T13:12:05.210Z,15.80
2022-12-12T13:14:45.168Z,15.85
2022-12-12T13:17:21.566Z,15.27
2022-12-12T13:19:57.342Z,16.80
2022-12-12T13:22:46.311Z,14.98
2022-12-12T13:25:30.515Z,15.30
2022-12-12T13:28:07.517Z,14.15
2022-12-12T13:30:54.982Z,15.43
2022-12-12T13:33:37.693Z,14.45
2022-12-12T13:36:16.653Z,18.20
2022-12-12T13:38:51.532Z,16.45
2022-12-12T13:41:23.930Z,16.33
2022-12-12T13:43:57.904Z,15.88
2022-12-12T13:46:40.834Z,14.57
2022-12-12T13:49:34.024Z,16.02
2022-12-12T13:52:25.195Z,17.23
2022-12-12T13:55:19.063Z,17.52
2022-12-12T13:58:15.994Z,16.58
2022-12-12T14:00:48.544Z,16.02
2022-12-12T14:03:29.872Z,15.73
2022-12-12T14:06:18.656Z,16.60
2022-12-12T14:08:53.371Z,14.65
2022-12-12T14:11:30.456Z,14.20
2022-12-12T14:14:22.170Z,14.65
2022-12-12T14:16:56.332Z,14.98
2022-12-12T14:19:34.386Z,15.32
2022-12-12T14:22:06.918Z,11.70
2022-12-12T14:24:58.607Z,10.85
2022-12-12T14:28:10.582Z,10.52
2022-12-12T14:30:57.571Z,8.57
2022-12-12T14:34:08.279Z,7.60
2022-12-12T14:37:11.481Z,7.60
2022-12-12T14:39:55.602Z,6.32
2022-12-12T14:43:20.264Z,7.20
2022-12-12T14:45:36.564Z,8.45
2022-12-12T14:48:11.014Z,12.80
2022-12-12T14:50:47.430Z,14.57
2022-12-12T14:53:24.249Z,16.00
2022-12-12T14:56:00.129Z,14.65
2022-12-12T14:58:36.772Z,15.95
2022-12-12T15:01:09.642Z,16.05
2022-12-12T15:03:46.066Z,17.35
2022-12-12T15:06:30.252Z,14.35
2022-12-12T15:09:24.844Z,16.15
2022-12-12T15:12:13.317Z,14.60
2022-12-12T15:14:54.997Z,13.63
2022-12-12T15:17:29.554Z,14.80
2022-12-12T15:20:05.430Z,13.73
2022-12-12T15:22:48.127Z,13.98
2022-12-12T15:25:23.263Z,13.18
2022-12-12T15:27:56.804Z,12.65
2022-12-12T15:30:32.807Z,11.73
2022-12-12T15:33:08.042Z,13.55
2022-12-12T15:35:48.924Z,10.20
2022-12-12T15:38:21.681Z,9.88
2022-12-12T15:40:57.690Z,11.55
2022-12-12T15:43:31.282Z,8.77
2022-12-12T15:46:13.305Z,10.60
2022-12-12T15:48:48.268Z,9.15
2022-12-12T15:51:24.997Z,10.85
2022-12-12T15:53:58.904Z,10.00
2022-12-12T15:56:31.321Z,11.27
2022-12-12T15:59:15.803Z,11.38
2022-12-12T16:01:48.203Z,9.98
2022-12-12T16:04:24.192Z,9.40
2022-12-12T16:07:19.986Z,9.55
2022-12-12T16:10:00.187Z,6.03
2022-12-12T16:12:55.150Z,5.47
2022-12-12T16:15:37.717Z,4.28
2022-12-12T16:18:17.277Z,4.25
2022-12-12T16:20:51.518Z,4.45
2022-12-12T16:23:28.625Z,4.60
2022-12-12T16:26:00.988Z,4.80
2022-12-12T16:28:33.480Z,4.57
2022-12-12T16:31:15.466Z,4.15
2022-12-12T16:33:48.836Z,3.55
2022-12-12T16:36:21.407Z,3.42
2022-12-12T16:38:53.774Z,3.97
2022-12-12T16:41:26.607Z,3.60
2022-12-12T16:43:59.206Z,5.28
2022-12-12T16:46:32.266Z,4.65
2022-12-12T16:49:05.123Z,2.63
2022-12-12T16:51:40.662Z,2.50
2022-12-12T16:54:16.481Z,3.40
2022-12-12T16:56:51.883Z,3.20
2022-12-12T16:59:24.294Z,3.13
2022-12-12T17:01:57.305Z,3.20
2022-12-12T17:04:31.524Z,1.80
2022-12-12T17:07:07.283Z,1.98
2022-12-12T17:09:39.796Z,2.95
2022-12-12T17:12:12.452Z,3.13
2022-12-12T17:14:44.853Z,2.55
2022-12-12T17:17:18.216Z,2.38
2022-12-12T17:19:50.697Z,3.08
2022-12-12T17:22:23.127Z,2.38
2022-12-12T17:24:55.501Z,2.22
2022-12-12T17:27:27.827Z,1.27
2022-12-12T17:30:00.338Z,1.75
2022-12-12T17:32:33.896Z,2.35
2022-12-12T17:35:07.742Z,3.20
2022-12-12T17:37:40.114Z,1.17
2022-12-12T17:40:13.087Z,1.40
2022-12-12T17:42:45.690Z,1.85
2022-12-12T17:45:18.681Z,1.45
2022-12-12T17:47:51.908Z,1.02
2022-12-12T17:50:24.212Z,2.00
2022-12-12T17:52:56.606Z,1.42
2022-12-12T17:55:53.473Z,1.30
2022-12-12T17:58:23.891Z,2.15
2022-12-12T18:01:00.687Z,0.93
2022-12-12T18:03:34.601Z,0.75
2022-12-12T18:06:07.963Z,2.13
2022-12-12T18:08:40.934Z,0.65
2022-12-12T18:11:15.941Z,1.48
2022-12-12T18:13:48.285Z,2.05
2022-12-12T18:16:22.874Z,0.50
2022-12-12T18:18:56.490Z,0.40
2022-12-12T18:24:24.733Z,0.60
2022-12-12T18:26:58.526Z,0.60
2022-12-12T18:29:31.566Z,1.55
2022-12-12T18:32:04.989Z,2.80
2022-12-12T18:34:38.049Z,2.90
2022-12-12T18:37:10.659Z,0.80
2022-12-12T18:39:43.203Z,0.68
2022-12-12T18:42:15.607Z,4.00
2022-12-12T18:44:48.505Z,1.90
2022-12-12T18:47:21.034Z,0.50
2022-12-12T18:49:54.080Z,1.20
2022-12-12T18:52:26.523Z,1.00
2022-12-12T18:54:58.914Z,3.13
2022-12-12T18:57:31.872Z,1.83
2022-12-12T19:00:06.669Z,1.60
2022-12-12T19:02:39.817Z,3.28
2022-12-12T19:05:13.798Z,2.63
2022-12-12T19:07:46.558Z,2.53
2022-12-12T19:10:19.035Z,1.58
2022-12-12T19:12:51.450Z,1.52
2022-12-12T19:15:23.793Z,1.27
2022-12-12T19:17:57.084Z,1.00
2022-12-12T19:20:30.366Z,1.02
2022-12-12T19:23:02.760Z,0.80
2022-12-12T19:25:42.353Z,0.80
2022-12-12T19:28:15.258Z,0.82
2022-12-12T19:30:47.926Z,0.32
2022-12-12T19:33:20.368Z,0.47
2022-12-12T19:35:53.387Z,0.65
2022-12-12T19:38:25.886Z,0.65
2022-12-12T19:41:02.601Z,0.47
2022-12-12T19:43:35.552Z,0.73
2022-12-12T19:46:11.135Z,1.23
2022-12-12T19:48:44.023Z,0.68
2022-12-12T19:51:19.669Z,1.13
2022-12-12T19:53:54.710Z,1.40
2022-12-12T19:56:29.485Z,1.63
2022-12-12T19:59:02.142Z,1.48
2022-12-12T20:01:36.279Z,0.80
2022-12-12T20:04:14.533Z,0.90
2022-12-12T20:06:48.702Z,0.68
2022-12-12T20:09:23.110Z,0.82
2022-12-12T20:11:56.784Z,0.70
2022-12-12T20:14:31.249Z,0.57
2022-12-12T20:17:03.867Z,0.47
2022-12-12T20:19:36.574Z,0.60
2022-12-12T20:22:09.654Z,0.75
2022-12-12T20:24:43.937Z,0.70
2022-12-12T20:27:16.314Z,0.98
2022-12-12T20:29:48.865Z,1.25
2022-12-12T20:32:23.512Z,1.30
2022-12-12T20:34:55.900Z,0.90
2022-12-12T20:37:30.767Z,1.33
2022-12-12T20:40:04.036Z,0.80
2022-12-12T20:42:36.350Z,0.63
2022-12-12T20:45:09.444Z,0.70
2022-12-12T20:47:41.851Z,0.90
2022-12-12T20:50:14.470Z,1.15
2022-12-12T20:52:47.534Z,1.08
2022-12-12T20:55:19.940Z,1.05
2022-12-12T20:57:52.339Z,1.25
2022-12-12T21:00:25.871Z,1.67
2022-12-12T21:02:58.220Z,1.70
2022-12-12T21:05:30.639Z,1.85
2022-12-12T21:08:03.981Z,1.25
2022-12-12T21:10:36.461Z,1.27
2022-12-12T21:13:08.923Z,1.48
2022-12-12T21:15:41.303Z,1.25
2022-12-12T21:18:13.653Z,2.08
2022-12-12T21:20:46.051Z,1.15
2022-12-12T21:23:20.237Z,1.77
2022-12-12T21:25:52.580Z,1.55
2022-12-12T21:28:24.912Z,1.38
2022-12-12T21:30:57.748Z,1.35
2022-12-12T21:33:30.093Z,2.65
2022-12-12T21:36:03.842Z,2.45
2022-12-12T21:38:37.643Z,3.28
2022-12-12T21:41:12.271Z,4.57
2022-12-12T21:43:44.826Z,6.55
2022-12-12T21:46:19.305Z,3.25
2022-12-12T21:49:07.528Z,5.10
2022-12-12T21:51:40.589Z,2.38
2022-12-12T21:54:15.271Z,8.88
2022-12-12T21:56:48.206Z,3.22
2022-12-12T21:59:20.671Z,2.30
2022-12-12T22:01:54.231Z,3.08
2022-12-12T22:04:27.555Z,2.20
2022-12-12T22:06:59.948Z,2.80
2022-12-12T22:09:32.925Z,2.60
2022-12-12T22:12:05.680Z,3.20
2022-12-12T22:14:38.129Z,1.67
2022-12-12T22:17:10.506Z,1.33
2022-12-12T22:19:42.863Z,2.38
2022-12-12T22:22:15.248Z,1.70
2022-12-12T22:24:48.292Z,5.43
2022-12-12T22:27:20.674Z,1.65
2022-12-12T22:29:53.029Z,1.50
2022-12-12T22:32:27.135Z,2.08
2022-12-12T22:34:59.436Z,2.10
2022-12-12T22:37:31.813Z,4.18
2022-12-12T22:40:06.282Z,2.53
2022-12-12T22:42:38.713Z,1.25
2022-12-12T22:45:11.435Z,1.20
2022-12-12T22:47:43.954Z,1.52
2022-12-12T22:50:16.523Z,1.45
2022-12-12T22:52:49.034Z,2.13
2022-12-12T22:55:22.017Z,1.48
2022-12-12T22:57:54.437Z,1.20
2022-12-12T23:00:26.846Z,4.30
2022-12-12T23:02:59.323Z,3.22
2022-12-12T23:05:31.782Z,2.10
2022-12-12T23:08:04.791Z,2.72
2022-12-12T23:10:38.025Z,1.88
2022-12-12T23:13:10.403Z,2.13
2022-12-12T23:15:42.732Z,2.08
2022-12-12T23:18:15.220Z,2.58
2022-12-12T23:20:47.582Z,2.05
2022-12-12T23:23:19.940Z,1.55
2022-12-12T23:25:53.435Z,2.20
2022-12-12T23:28:25.933Z,2.95
2022-12-12T23:30:58.487Z,2.83
2022-12-12T23:33:30.917Z,1.10
2022-12-12T23:36:03.604Z,3.60
2022-12-12T23:38:36.091Z,2.78
2022-12-12T23:41:11.294Z,5.07
2022-12-12T23:43:43.927Z,4.28
2022-12-12T23:46:27.605Z,2.13
2022-12-12T23:49:02.158Z,1.02
2022-12-12T23:51:36.854Z,1.20
2022-12-12T23:54:11.083Z,1.83
2022-12-12T23:56:44.958Z,1.85
2022-12-12T23:59:19.526Z,2.45
